createdAt,value
2022-12-01T11:01:35.981Z,69.69
2022-12-01T11:04:06.813Z,71.97
2022-12-01T11:06:35.780Z,69.09
2022-12-01T11:09:06.905Z,69.16
2022-12-01T11:11:38.014Z,74.00
2022-12-01T11:20:30.095Z,71.61
2022-12-01T11:23:09.741Z,73.62
2022-12-01T11:25:37.444Z,72.16
2022-12-01T11:28:05.511Z,69.62
2022-12-01T11:30:33.929Z,73.21
2022-12-01T11:33:04.519Z,70.83
2022-12-01T11:38:30.951Z,70.39
2022-12-01T11:40:59.254Z,74.82
2022-12-01T11:43:34.140Z,69.11
2022-12-01T11:46:05.613Z,72.36
2022-12-01T11:48:35.664Z,71.45
2022-12-01T11:51:27.542Z,71.33
2022-12-01T11:54:16.853Z,73.70
2022-12-01T11:56:45.776Z,70.30
2022-12-01T11:59:17.639Z,71.05
2022-12-01T12:01:50.913Z,69.41
2022-12-01T12:04:37.196Z,65.65
2022-12-01T12:07:43.241Z,68.80
2022-12-01T12:10:19.384Z,71.23
2022-12-01T12:13:04.897Z,70.21
2022-12-01T12:18:58.502Z,74.11
2022-12-01T12:21:41.066Z,75.81
2022-12-01T12:24:19.417Z,75.17
2022-12-01T12:27:17.838Z,70.68
2022-12-01T12:29:50.990Z,69.87
2022-12-01T12:32:21.680Z,69.81
2022-12-01T12:34:57.865Z,70.23
2022-12-01T12:37:31.439Z,69.37
2022-12-01T12:40:19.729Z,69.79
2022-12-01T12:42:59.551Z,70.18
2022-12-01T12:45:46.766Z,72.32
2022-12-01T12:48:29.659Z,71.38
2022-12-01T12:51:02.494Z,70.60
2022-12-01T12:53:41.457Z,67.80
2022-12-01T12:56:14.249Z,67.18
2022-12-01T12:58:55.827Z,66.16
2022-12-01T13:01:28.899Z,67.76
2022-12-01T13:04:02.467Z,65.60
2022-12-01T13:06:52.842Z,66.73
2022-12-01T13:09:41.280Z,66.98
2022-12-01T13:12:29.226Z,70.28
2022-12-01T13:15:06.320Z,72.58
2022-12-01T13:17:35.890Z,74.62
2022-12-01T13:20:08.021Z,72.14
2022-12-01T13:22:37.036Z,72.20
2022-12-01T13:25:05.377Z,70.15
2022-12-01T13:27:36.729Z,66.31
2022-12-01T13:30:04.916Z,69.33
2022-12-01T13:32:35.900Z,68.20
2022-12-01T13:36:08.585Z,65.37
2022-12-01T13:38:38.153Z,66.57
2022-12-01T13:41:26.377Z,70.09
2022-12-01T13:44:31.446Z,70.17
2022-12-01T13:47:04.880Z,67.43
2022-12-01T13:49:39.956Z,69.42
2022-12-01T13:52:22.725Z,67.37
2022-12-01T13:55:09.622Z,67.38
2022-12-01T13:57:50.807Z,64.98
2022-12-01T14:00:30.539Z,65.13
2022-12-01T14:03:13.232Z,67.56
2022-12-01T14:05:40.733Z,69.37
2022-12-01T14:08:23.564Z,68.28
2022-12-01T14:10:58.773Z,66.95
2022-12-01T14:13:28.689Z,66.37
2022-12-01T14:16:04.233Z,67.97
2022-12-01T14:18:44.390Z,69.33
2022-12-01T14:21:12.718Z,67.46
2022-12-01T14:24:02.537Z,64.79
2022-12-01T14:26:31.545Z,66.41
2022-12-01T14:29:01.902Z,67.46
2022-12-01T14:31:35.326Z,72.03
2022-12-01T14:34:08.042Z,72.67
2022-12-01T14:36:45.275Z,73.61
2022-12-01T14:39:37.242Z,74.33
2022-12-01T14:42:37.061Z,74.45
2022-12-01T14:45:08.349Z,70.95
2022-12-01T14:47:46.792Z,71.57
2022-12-01T14:50:25.131Z,72.68
2022-12-01T14:53:07.394Z,69.03
2022-12-01T14:55:46.504Z,69.59
2022-12-01T14:58:32.493Z,67.70
2022-12-01T15:01:14.012Z,68.79
2022-12-01T15:03:45.468Z,67.24
2022-12-01T15:06:21.806Z,69.04
2022-12-01T15:09:32.146Z,71.23
2022-12-01T15:12:01.173Z,70.26
2022-12-01T15:14:28.194Z,69.39
2022-12-01T15:16:56.145Z,67.57
2022-12-01T15:19:44.375Z,68.40
2022-12-01T15:22:17.008Z,72.17
2022-12-01T15:24:47.868Z,70.35
2022-12-01T15:27:43.084Z,66.18
2022-12-01T15:30:14.844Z,68.35
2022-12-01T15:32:45.991Z,69.92
2022-12-01T15:35:22.788Z,72.44
2022-12-01T15:37:51.703Z,69.35
2022-12-01T15:43:21.829Z,70.44
2022-12-01T15:45:57.743Z,70.24
2022-12-01T15:48:36.821Z,69.48
2022-12-01T15:51:18.997Z,68.64
2022-12-01T15:53:54.357Z,67.87
2022-12-01T15:56:28.651Z,69.32
2022-12-01T15:59:02.908Z,69.31
2022-12-01T16:01:32.704Z,71.21
2022-12-01T16:04:06.752Z,66.98
2022-12-01T16:06:37.435Z,76.22
2022-12-01T16:09:18.699Z,73.57
2022-12-01T16:12:07.805Z,73.22
2022-12-01T16:14:36.693Z,72.96
2022-12-01T16:17:05.810Z,71.03
2022-12-01T16:19:34.001Z,68.63
2022-12-01T16:22:17.507Z,70.49
2022-12-01T16:24:56.064Z,70.58
2022-12-01T16:27:27.611Z,66.86
2022-12-01T16:30:01.943Z,67.81
2022-12-01T16:32:46.216Z,66.05
2022-12-01T16:35:27.962Z,70.12
2022-12-01T16:37:55.893Z,72.17
2022-12-01T16:40:23.450Z,70.38
2022-12-01T16:42:50.910Z,68.73
2022-12-01T16:45:19.875Z,69.83
2022-12-01T16:47:48.458Z,69.31
2022-12-01T16:50:21.206Z,72.29
2022-12-01T16:52:48.438Z,70.39
2022-12-01T16:55:42.763Z,69.60
2022-12-01T16:58:10.094Z,70.88
2022-12-01T17:00:37.848Z,68.05
2022-12-01T17:03:05.701Z,65.24
2022-12-01T17:05:34.394Z,67.50
2022-12-01T17:08:01.777Z,70.67
2022-12-01T17:10:29.534Z,70.57
2022-12-01T17:12:57.518Z,68.23
2022-12-01T17:15:25.270Z,70.39
2022-12-01T17:17:52.382Z,72.34
2022-12-01T17:20:19.864Z,71.80
2022-12-01T17:22:46.890Z,68.23
2022-12-01T17:25:14.524Z,66.32
2022-12-01T17:27:43.945Z,66.16
2022-12-01T17:30:13.669Z,65.74
2022-12-01T17:32:40.829Z,64.68
2022-12-01T17:35:09.144Z,66.75
2022-12-01T17:37:39.249Z,67.76
2022-12-01T17:40:08.920Z,67.05
2022-12-01T17:42:36.335Z,69.00
2022-12-01T17:45:03.970Z,70.71
2022-12-01T17:47:31.133Z,70.85
2022-12-01T17:49:58.647Z,72.09
2022-12-01T17:52:28.590Z,69.26
2022-12-01T17:54:56.863Z,67.56
2022-12-01T17:57:24.294Z,69.73
2022-12-01T17:59:51.702Z,68.78
2022-12-01T18:02:18.860Z,66.74
2022-12-01T18:04:46.776Z,66.37
2022-12-01T18:07:14.246Z,68.36
2022-12-01T18:09:41.908Z,66.51
2022-12-01T18:12:09.170Z,71.58
2022-12-01T18:14:38.425Z,71.00
2022-12-01T18:17:06.344Z,70.58
2022-12-01T18:19:33.869Z,70.61
2022-12-01T18:22:00.963Z,70.99
2022-12-01T18:24:28.474Z,72.25
2022-12-01T18:26:56.882Z,72.67
2022-12-01T18:29:26.437Z,73.01
2022-12-01T18:31:58.932Z,69.30
2022-12-01T18:34:29.657Z,68.90
2022-12-01T18:36:57.516Z,68.06
2022-12-01T18:39:25.141Z,70.58
2022-12-01T18:41:52.983Z,70.38
2022-12-01T18:44:20.563Z,71.86
2022-12-01T18:46:47.824Z,74.74
2022-12-01T18:49:16.692Z,75.96
2022-12-01T18:51:43.773Z,72.49
2022-12-01T18:54:15.586Z,73.57
2022-12-01T18:56:43.434Z,73.36
2022-12-01T18:59:12.590Z,73.15
2022-12-01T19:01:43.532Z,74.82
2022-12-01T19:04:11.739Z,73.11
2022-12-01T19:06:40.604Z,75.71
2022-12-01T19:09:10.425Z,74.09
2022-12-01T19:11:40.634Z,73.10
2022-12-01T19:14:13.485Z,72.83
2022-12-01T19:16:40.778Z,72.79
2022-12-01T19:19:09.876Z,69.52
2022-12-01T19:21:37.694Z,65.10
2022-12-01T19:24:05.608Z,66.74
2022-12-01T19:26:32.703Z,67.45
2022-12-01T19:29:00.202Z,65.57
2022-12-01T19:31:27.487Z,68.39
2022-12-01T19:33:55.393Z,70.20
2022-12-01T19:36:25.492Z,69.24
2022-12-01T19:38:53.852Z,66.74
2022-12-01T19:41:21.704Z,68.04
2022-12-01T19:43:49.418Z,66.75
2022-12-01T19:46:19.524Z,63.62
2022-12-01T19:48:48.212Z,64.92
2022-12-01T19:51:20.646Z,68.25
2022-12-01T19:53:48.756Z,68.63
2022-12-01T19:56:15.857Z,69.07
2022-12-01T19:58:44.871Z,71.00
2022-12-01T20:01:17.709Z,68.50
2022-12-01T20:03:48.776Z,67.65
2022-12-01T20:06:22.587Z,64.16
2022-12-01T20:08:51.109Z,67.57
2022-12-01T20:11:18.950Z,66.31
2022-12-01T20:13:48.154Z,65.23
2022-12-01T20:16:20.653Z,64.81
2022-12-01T20:18:50.818Z,64.80
2022-12-01T20:21:23.797Z,64.57
2022-12-01T20:23:58.777Z,68.25
2022-12-01T20:26:38.844Z,67.84
2022-12-01T20:29:12.822Z,69.41
2022-12-01T20:31:40.604Z,68.63
2022-12-01T20:34:12.998Z,69.53
2022-12-01T20:36:40.944Z,72.23
2022-12-01T20:39:10.011Z,70.87
2022-12-01T20:41:38.387Z,71.88
2022-12-01T20:44:07.953Z,69.91
2022-12-01T20:46:37.024Z,67.91
2022-12-01T20:49:05.449Z,67.01
2022-12-01T20:51:35.268Z,70.83
2022-12-01T20:54:27.179Z,70.36
2022-12-01T20:56:52.863Z,69.50
2022-12-01T20:59:24.126Z,70.77
2022-12-01T21:01:51.160Z,74.66
2022-12-01T21:04:18.648Z,73.15
2022-12-01T21:06:46.129Z,70.61
2022-12-01T21:09:15.144Z,67.95
2022-12-01T21:12:09.435Z,72.73
2022-12-01T21:14:52.876Z,70.17
2022-12-01T21:17:34.356Z,67.87
2022-12-01T21:20:22.198Z,70.47
2022-12-01T21:22:51.351Z,71.52
2022-12-01T21:25:22.502Z,68.21
2022-12-01T21:27:50.316Z,68.43
2022-12-01T21:30:22.115Z,67.07
2022-12-01T21:32:50.018Z,66.88
2022-12-01T21:35:25.109Z,69.38
2022-12-01T21:38:07.413Z,65.82
2022-12-01T21:40:35.142Z,67.38
2022-12-01T21:43:22.914Z,64.93
2022-12-01T21:46:07.154Z,68.27
2022-12-01T21:48:37.002Z,66.21
2022-12-01T21:51:19.046Z,69.50
2022-12-01T21:53:48.746Z,69.12
2022-12-01T21:56:22.263Z,70.98
2022-12-01T21:58:50.049Z,71.56
2022-12-01T22:01:27.131Z,70.61
2022-12-01T22:04:02.263Z,67.38
2022-12-01T22:06:38.121Z,72.18
2022-12-01T22:09:24.499Z,70.78
2022-12-01T22:11:57.996Z,72.21
2022-12-01T22:14:30.022Z,69.06
2022-12-01T22:17:01.415Z,70.13
2022-12-01T22:19:34.006Z,70.08
2022-12-01T22:22:14.437Z,70.64
2022-12-01T22:24:43.842Z,68.48
2022-12-01T22:27:20.111Z,67.93
2022-12-01T22:29:54.096Z,67.05
2022-12-01T22:32:34.754Z,68.55
2022-12-01T22:38:48.418Z,67.28
2022-12-01T22:41:27.499Z,65.96
2022-12-01T22:44:15.375Z,67.21
2022-12-01T22:47:06.997Z,67.70
2022-12-01T22:49:49.726Z,69.20
2022-12-01T22:52:53.328Z,67.30
2022-12-01T22:55:25.424Z,72.18
2022-12-01T23:01:15.677Z,71.79
2022-12-01T23:03:44.821Z,68.65
2022-12-01T23:06:51.965Z,68.21
2022-12-01T23:09:20.229Z,63.53
2022-12-01T23:12:00.300Z,65.83
2022-12-01T23:14:29.148Z,65.15
2022-12-01T23:17:13.260Z,65.50
2022-12-01T23:19:43.811Z,68.56
2022-12-01T23:22:12.326Z,64.76
2022-12-01T23:24:40.271Z,65.64
2022-12-01T23:27:08.159Z,62.57
2022-12-01T23:30:06.908Z,64.79
2022-12-01T23:32:43.697Z,66.31
2022-12-01T23:35:16.012Z,65.87
2022-12-01T23:37:47.538Z,68.44
2022-12-01T23:40:25.775Z,69.16
2022-12-01T23:42:53.930Z,70.65
2022-12-01T23:45:24.805Z,70.58
2022-12-01T23:47:54.842Z,68.27
2022-12-01T23:50:24.046Z,66.95
2022-12-01T23:52:52.191Z,69.41
2022-12-01T23:55:31.332Z,70.00
2022-12-01T23:57:59.552Z,71.70
